sensor_id;sensor_type;location;lat;lon;timestamp;P1;durP1;ratioP1;P2;durP2;ratioP2
38911;SDS011;28444;48.056;14.408;2023-07-20T00:01:51;9.95;;;5.85;;
38911;SDS011;28444;48.056;14.408;2023-07-20T00:04:18;9.75;;;5.13;;
38911;SDS011;28444;48.056;14.408;2023-07-20T00:06:44;11.15;;;5.50;;
38911;SDS011;28444;48.056;14.408;2023-07-20T00:09:11;8.07;;;5.13;;
38911;SDS011;28444;48.056;14.408;2023-07-20T00:11:39;9.70;;;5.25;;
38911;SDS011;28444;48.056;14.408;2023-07-20T00:14:05;8.43;;;4.70;;
38911;SDS011;28444;48.056;14.408;2023-07-20T00:16:33;7.88;;;5.18;;
38911;SDS011;28444;48.056;14.408;2023-07-20T00:18:59;10.98;;;5.13;;
38911;SDS011;28444;48.056;14.408;2023-07-20T00:21:26;8.93;;;5.57;;
38911;SDS011;28444;48.056;14.408;2023-07-20T00:23:53;6.93;;;4.82;;
38911;SDS011;28444;48.056;14.408;2023-07-20T00:26:19;6.97;;;4.80;;
38911;SDS011;28444;48.056;14.408;2023-07-20T00:28:48;7.55;;;5.32;;
38911;SDS011;28444;48.056;14.408;2023-07-20T00:31:16;9.10;;;5.32;;
38911;SDS011;28444;48.056;14.408;2023-07-20T00:33:43;7.80;;;5.55;;
38911;SDS011;28444;48.056;14.408;2023-07-20T00:36:11;9.98;;;5.05;;
38911;SDS011;28444;48.056;14.408;2023-07-20T00:38:37;16.48;;;5.10;;
38911;SDS011;28444;48.056;14.408;2023-07-20T00:41:04;7.65;;;5.07;;
38911;SDS011;28444;48.056;14.408;2023-07-20T00:43:31;7.85;;;4.47;;
38911;SDS011;28444;48.056;14.408;2023-07-20T00:45:57;10.13;;;5.30;;
38911;SDS011;28444;48.056;14.408;2023-07-20T00:48:25;12.65;;;5.82;;
38911;SDS011;28444;48.056;14.408;2023-07-20T00:50:52;6.60;;;4.68;;
38911;SDS011;28444;48.056;14.408;2023-07-20T00:53:18;9.50;;;5.45;;
38911;SDS011;28444;48.056;14.408;2023-07-20T00:55:45;10.68;;;4.85;;
38911;SDS011;28444;48.056;14.408;2023-07-20T00:58:12;9.23;;;4.78;;
38911;SDS011;28444;48.056;14.408;2023-07-20T01:00:39;12.15;;;5.20;;
38911;SDS011;28444;48.056;14.408;2023-07-20T01:03:05;6.60;;;4.85;;
38911;SDS011;28444;48.056;14.408;2023-07-20T01:05:53;7.85;;;4.88;;
38911;SDS011;28444;48.056;14.408;2023-07-20T01:08:47;11.20;;;4.20;;
38911;SDS011;28444;48.056;14.408;2023-07-20T01:11:23;7.45;;;4.57;;
38911;SDS011;28444;48.056;14.408;2023-07-20T01:14:02;6.25;;;4.65;;
38911;SDS011;28444;48.056;14.408;2023-07-20T01:16:29;8.25;;;4.93;;
38911;SDS011;28444;48.056;14.408;2023-07-20T01:18:56;7.60;;;5.10;;
38911;SDS011;28444;48.056;14.408;2023-07-20T01:21:27;8.85;;;4.78;;
38911;SDS011;28444;48.056;14.408;2023-07-20T01:24:23;8.05;;;4.30;;
38911;SDS011;28444;48.056;14.408;2023-07-20T01:31:55;6.13;;;4.38;;
38911;SDS011;28444;48.056;14.408;2023-07-20T01:34:23;8.65;;;5.03;;
38911;SDS011;28444;48.056;14.408;2023-07-20T01:36:52;9.73;;;5.18;;
38911;SDS011;28444;48.056;14.408;2023-07-20T01:39:21;9.90;;;4.47;;
38911;SDS011;28444;48.056;14.408;2023-07-20T01:41:48;9.05;;;4.95;;
38911;SDS011;28444;48.056;14.408;2023-07-20T01:44:15;9.45;;;4.55;;
38911;SDS011;28444;48.056;14.408;2023-07-20T01:46:42;8.90;;;4.70;;
38911;SDS011;28444;48.056;14.408;2023-07-20T01:49:08;7.30;;;4.75;;
38911;SDS011;28444;48.056;14.408;2023-07-20T01:51:35;6.13;;;4.22;;
38911;SDS011;28444;48.056;14.408;2023-07-20T01:54:01;8.10;;;4.53;;
38911;SDS011;28444;48.056;14.408;2023-07-20T01:56:28;7.32;;;4.88;;
38911;SDS011;28444;48.056;14.408;2023-07-20T01:58:55;8.95;;;4.88;;
38911;SDS011;28444;48.056;14.408;2023-07-20T02:01:22;8.82;;;5.05;;
38911;SDS011;28444;48.056;14.408;2023-07-20T02:03:48;7.60;;;4.05;;
38911;SDS011;28444;48.056;14.408;2023-07-20T02:06:15;8.20;;;4.75;;
38911;SDS011;28444;48.056;14.408;2023-07-20T02:08:41;8.32;;;4.60;;
38911;SDS011;28444;48.056;14.408;2023-07-20T02:11:08;6.43;;;4.30;;
38911;SDS011;28444;48.056;14.408;2023-07-20T02:13:36;7.95;;;4.70;;
38911;SDS011;28444;48.056;14.408;2023-07-20T02:16:03;7.53;;;4.63;;
38911;SDS011;28444;48.056;14.408;2023-07-20T02:18:29;9.07;;;5.18;;
38911;SDS011;28444;48.056;14.408;2023-07-20T02:20:56;8.15;;;4.60;;
38911;SDS011;28444;48.056;14.408;2023-07-20T02:23:23;7.38;;;4.75;;
38911;SDS011;28444;48.056;14.408;2023-07-20T02:25:49;10.32;;;5.00;;
38911;SDS011;28444;48.056;14.408;2023-07-20T02:28:16;5.72;;;4.20;;
38911;SDS011;28444;48.056;14.408;2023-07-20T02:30:43;7.40;;;4.50;;
38911;SDS011;28444;48.056;14.408;2023-07-20T02:33:09;6.72;;;5.13;;
38911;SDS011;28444;48.056;14.408;2023-07-20T02:35:36;10.48;;;4.57;;
38911;SDS011;28444;48.056;14.408;2023-07-20T02:38:03;9.52;;;4.60;;
38911;SDS011;28444;48.056;14.408;2023-07-20T02:40:29;11.30;;;4.65;;
38911;SDS011;28444;48.056;14.408;2023-07-20T02:42:56;9.60;;;4.25;;
38911;SDS011;28444;48.056;14.408;2023-07-20T02:45:23;8.68;;;4.10;;
38911;SDS011;28444;48.056;14.408;2023-07-20T02:47:50;6.03;;;4.55;;
38911;SDS011;28444;48.056;14.408;2023-07-20T02:50:16;7.28;;;4.93;;
38911;SDS011;28444;48.056;14.408;2023-07-20T02:52:43;11.43;;;4.18;;
38911;SDS011;28444;48.056;14.408;2023-07-20T02:55:10;7.82;;;5.32;;
38911;SDS011;28444;48.056;14.408;2023-07-20T02:57:36;7.65;;;4.18;;
38911;SDS011;28444;48.056;14.408;2023-07-20T03:00:03;15.13;;;4.07;;
38911;SDS011;28444;48.056;14.408;2023-07-20T03:02:32;7.72;;;4.75;;
38911;SDS011;28444;48.056;14.408;2023-07-20T03:04:58;13.45;;;4.82;;
38911;SDS011;28444;48.056;14.408;2023-07-20T03:07:27;10.25;;;5.30;;
38911;SDS011;28444;48.056;14.408;2023-07-20T03:09:54;7.00;;;4.45;;
38911;SDS011;28444;48.056;14.408;2023-07-20T03:12:21;9.75;;;4.78;;
38911;SDS011;28444;48.056;14.408;2023-07-20T03:14:48;6.15;;;4.38;;
38911;SDS011;28444;48.056;14.408;2023-07-20T03:17:15;6.43;;;4.47;;
38911;SDS011;28444;48.056;14.408;2023-07-20T03:19:41;7.40;;;5.18;;
38911;SDS011;28444;48.056;14.408;2023-07-20T03:22:09;7.53;;;4.38;;
38911;SDS011;28444;48.056;14.408;2023-07-20T03:24:35;7.95;;;4.82;;
38911;SDS011;28444;48.056;14.408;2023-07-20T03:27:02;5.88;;;4.15;;
38911;SDS011;28444;48.056;14.408;2023-07-20T03:29:30;10.60;;;4.47;;
38911;SDS011;28444;48.056;14.408;2023-07-20T03:31:58;9.43;;;4.38;;
38911;SDS011;28444;48.056;14.408;2023-07-20T03:34:25;8.65;;;4.03;;
38911;SDS011;28444;48.056;14.408;2023-07-20T03:36:52;7.40;;;4.82;;
38911;SDS011;28444;48.056;14.408;2023-07-20T03:39:18;6.97;;;4.13;;
38911;SDS011;28444;48.056;14.408;2023-07-20T03:41:45;6.30;;;4.30;;
38911;SDS011;28444;48.056;14.408;2023-07-20T03:44:12;9.93;;;4.03;;
38911;SDS011;28444;48.056;14.408;2023-07-20T03:46:39;5.32;;;4.07;;
38911;SDS011;28444;48.056;14.408;2023-07-20T03:49:05;7.43;;;4.60;;
38911;SDS011;28444;48.056;14.408;2023-07-20T03:51:32;8.13;;;4.45;;
38911;SDS011;28444;48.056;14.408;2023-07-20T03:53:59;9.23;;;4.82;;
38911;SDS011;28444;48.056;14.408;2023-07-20T03:56:25;10.65;;;4.82;;
38911;SDS011;28444;48.056;14.408;2023-07-20T03:58:52;7.00;;;4.47;;
38911;SDS011;28444;48.056;14.408;2023-07-20T04:01:19;12.75;;;4.38;;
38911;SDS011;28444;48.056;14.408;2023-07-20T04:03:46;6.28;;;4.38;;
38911;SDS011;28444;48.056;14.408;2023-07-20T04:06:15;8.07;;;3.85;;
38911;SDS011;28444;48.056;14.408;2023-07-20T04:08:44;10.02;;;4.38;;
38911;SDS011;28444;48.056;14.408;2023-07-20T04:11:11;10.02;;;4.72;;
38911;SDS011;28444;48.056;14.408;2023-07-20T04:13:37;10.35;;;4.13;;
38911;SDS011;28444;48.056;14.408;2023-07-20T04:16:04;7.20;;;4.25;;
38911;SDS011;28444;48.056;14.408;2023-07-20T04:18:31;8.18;;;4.55;;
38911;SDS011;28444;48.056;14.408;2023-07-20T04:20:57;7.95;;;4.40;;
38911;SDS011;28444;48.056;14.408;2023-07-20T04:23:24;8.63;;;4.68;;
38911;SDS011;28444;48.056;14.408;2023-07-20T04:25:51;5.72;;;4.18;;
38911;SDS011;28444;48.056;14.408;2023-07-20T04:28:18;9.07;;;4.10;;
38911;SDS011;28444;48.056;14.408;2023-07-20T04:30:44;10.88;;;5.05;;
38911;SDS011;28444;48.056;14.408;2023-07-20T04:33:11;7.95;;;4.10;;
38911;SDS011;28444;48.056;14.408;2023-07-20T04:35:51;5.60;;;3.85;;
38911;SDS011;28444;48.056;14.408;2023-07-20T04:38:19;7.70;;;3.97;;
38911;SDS011;28444;48.056;14.408;2023-07-20T04:40:47;8.52;;;4.15;;
38911;SDS011;28444;48.056;14.408;2023-07-20T04:43:15;6.10;;;4.13;;
38911;SDS011;28444;48.056;14.408;2023-07-20T04:45:43;8.48;;;3.88;;
38911;SDS011;28444;48.056;14.408;2023-07-20T04:48:10;10.68;;;4.25;;
38911;SDS011;28444;48.056;14.408;2023-07-20T04:50:38;8.65;;;4.10;;
38911;SDS011;28444;48.056;14.408;2023-07-20T04:53:07;8.82;;;4.43;;
38911;SDS011;28444;48.056;14.408;2023-07-20T04:55:37;5.82;;;3.58;;
38911;SDS011;28444;48.056;14.408;2023-07-20T04:58:04;10.30;;;3.85;;
38911;SDS011;28444;48.056;14.408;2023-07-20T05:00:34;9.15;;;3.85;;
38911;SDS011;28444;48.056;14.408;2023-07-20T05:03:01;8.75;;;4.35;;
38911;SDS011;28444;48.056;14.408;2023-07-20T05:05:28;7.55;;;4.45;;
38911;SDS011;28444;48.056;14.408;2023-07-20T05:07:55;9.45;;;4.63;;
38911;SDS011;28444;48.056;14.408;2023-07-20T05:10:23;10.40;;;4.47;;
38911;SDS011;28444;48.056;14.408;2023-07-20T05:12:50;7.88;;;4.13;;
38911;SDS011;28444;48.056;14.408;2023-07-20T05:15:17;6.90;;;4.00;;
38911;SDS011;28444;48.056;14.408;2023-07-20T05:17:43;8.98;;;4.15;;
38911;SDS011;28444;48.056;14.408;2023-07-20T05:20:10;8.68;;;3.92;;
38911;SDS011;28444;48.056;14.408;2023-07-20T05:22:38;9.00;;;3.80;;
38911;SDS011;28444;48.056;14.408;2023-07-20T05:25:09;7.53;;;4.55;;
38911;SDS011;28444;48.056;14.408;2023-07-20T05:27:36;6.47;;;4.10;;
38911;SDS011;28444;48.056;14.408;2023-07-20T05:30:04;8.52;;;4.40;;
38911;SDS011;28444;48.056;14.408;2023-07-20T05:32:31;8.80;;;4.32;;
38911;SDS011;28444;48.056;14.408;2023-07-20T05:34:58;6.00;;;3.58;;
38911;SDS011;28444;48.056;14.408;2023-07-20T05:37:25;5.50;;;4.07;;
38911;SDS011;28444;48.056;14.408;2023-07-20T05:39:51;6.45;;;4.03;;
38911;SDS011;28444;48.056;14.408;2023-07-20T05:42:18;5.60;;;3.78;;
38911;SDS011;28444;48.056;14.408;2023-07-20T05:44:44;6.50;;;3.15;;
38911;SDS011;28444;48.056;14.408;2023-07-20T05:47:13;8.60;;;4.10;;
38911;SDS011;28444;48.056;14.408;2023-07-20T05:49:40;12.20;;;4.60;;
38911;SDS011;28444;48.056;14.408;2023-07-20T05:52:06;8.77;;;3.90;;
38911;SDS011;28444;48.056;14.408;2023-07-20T05:54:33;10.00;;;3.28;;
38911;SDS011;28444;48.056;14.408;2023-07-20T05:57:00;8.90;;;4.40;;
38911;SDS011;28444;48.056;14.408;2023-07-20T05:59:27;7.43;;;3.65;;
38911;SDS011;28444;48.056;14.408;2023-07-20T06:01:57;9.43;;;4.43;;
38911;SDS011;28444;48.056;14.408;2023-07-20T06:04:24;8.10;;;4.50;;
38911;SDS011;28444;48.056;14.408;2023-07-20T06:06:51;5.15;;;3.38;;
38911;SDS011;28444;48.056;14.408;2023-07-20T06:09:18;9.18;;;3.33;;
38911;SDS011;28444;48.056;14.408;2023-07-20T06:11:45;11.73;;;3.67;;
38911;SDS011;28444;48.056;14.408;2023-07-20T06:14:12;9.95;;;4.00;;
38911;SDS011;28444;48.056;14.408;2023-07-20T06:16:38;6.65;;;3.25;;
38911;SDS011;28444;48.056;14.408;2023-07-20T06:19:05;8.35;;;4.13;;
38911;SDS011;28444;48.056;14.408;2023-07-20T06:21:32;4.30;;;2.90;;
38911;SDS011;28444;48.056;14.408;2023-07-20T06:23:58;6.13;;;3.47;;
38911;SDS011;28444;48.056;14.408;2023-07-20T06:26:25;6.80;;;3.72;;
38911;SDS011;28444;48.056;14.408;2023-07-20T06:28:52;8.60;;;3.85;;
38911;SDS011;28444;48.056;14.408;2023-07-20T06:31:19;8.85;;;3.88;;
38911;SDS011;28444;48.056;14.408;2023-07-20T06:33:46;5.28;;;2.90;;
38911;SDS011;28444;48.056;14.408;2023-07-20T06:36:12;6.80;;;3.22;;
38911;SDS011;28444;48.056;14.408;2023-07-20T06:38:39;7.20;;;3.30;;
38911;SDS011;28444;48.056;14.408;2023-07-20T06:41:06;12.85;;;4.28;;
38911;SDS011;28444;48.056;14.408;2023-07-20T06:43:36;5.25;;;3.75;;
38911;SDS011;28444;48.056;14.408;2023-07-20T06:46:05;9.27;;;3.65;;
38911;SDS011;28444;48.056;14.408;2023-07-20T06:48:32;10.13;;;3.78;;
38911;SDS011;28444;48.056;14.408;2023-07-20T06:51:19;5.53;;;3.25;;
38911;SDS011;28444;48.056;14.408;2023-07-20T06:53:47;12.63;;;3.53;;
38911;SDS011;28444;48.056;14.408;2023-07-20T06:56:13;5.85;;;3.53;;
38911;SDS011;28444;48.056;14.408;2023-07-20T06:58:40;6.13;;;3.15;;
38911;SDS011;28444;48.056;14.408;2023-07-20T07:01:07;8.80;;;4.40;;
38911;SDS011;28444;48.056;14.408;2023-07-20T07:03:34;11.15;;;3.72;;
38911;SDS011;28444;48.056;14.408;2023-07-20T07:06:02;9.90;;;3.60;;
38911;SDS011;28444;48.056;14.408;2023-07-20T07:08:29;7.22;;;4.35;;
38911;SDS011;28444;48.056;14.408;2023-07-20T07:10:56;5.45;;;3.80;;
38911;SDS011;28444;48.056;14.408;2023-07-20T07:13:23;6.28;;;3.38;;
38911;SDS011;28444;48.056;14.408;2023-07-20T07:15:50;10.32;;;4.55;;
38911;SDS011;28444;48.056;14.408;2023-07-20T07:18:17;7.70;;;4.38;;
38911;SDS011;28444;48.056;14.408;2023-07-20T07:20:53;6.53;;;3.92;;
38911;SDS011;28444;48.056;14.408;2023-07-20T07:23:20;5.20;;;3.20;;
38911;SDS011;28444;48.056;14.408;2023-07-20T07:25:47;12.40;;;3.63;;
38911;SDS011;28444;48.056;14.408;2023-07-20T07:28:14;8.25;;;3.67;;
38911;SDS011;28444;48.056;14.408;2023-07-20T07:30:41;6.47;;;3.10;;
38911;SDS011;28444;48.056;14.408;2023-07-20T07:33:07;10.80;;;3.35;;
38911;SDS011;28444;48.056;14.408;2023-07-20T07:35:35;6.18;;;3.25;;
38911;SDS011;28444;48.056;14.408;2023-07-20T07:38:02;7.18;;;3.42;;
38911;SDS011;28444;48.056;14.408;2023-07-20T07:40:49;12.55;;;4.05;;
38911;SDS011;28444;48.056;14.408;2023-07-20T07:43:15;12.23;;;3.42;;
38911;SDS011;28444;48.056;14.408;2023-07-20T07:45:42;10.27;;;3.75;;
38911;SDS011;28444;48.056;14.408;2023-07-20T07:48:09;5.93;;;2.88;;
38911;SDS011;28444;48.056;14.408;2023-07-20T07:50:38;5.75;;;3.80;;
38911;SDS011;28444;48.056;14.408;2023-07-20T07:53:07;7.85;;;3.15;;
38911;SDS011;28444;48.056;14.408;2023-07-20T07:55:35;8.77;;;3.40;;
38911;SDS011;28444;48.056;14.408;2023-07-20T07:58:01;7.35;;;3.40;;
38911;SDS011;28444;48.056;14.408;2023-07-20T08:00:28;7.50;;;3.08;;
38911;SDS011;28444;48.056;14.408;2023-07-20T08:02:55;5.03;;;2.97;;
38911;SDS011;28444;48.056;14.408;2023-07-20T08:05:22;13.05;;;3.30;;
38911;SDS011;28444;48.056;14.408;2023-07-20T08:07:48;7.22;;;3.30;;
38911;SDS011;28444;48.056;14.408;2023-07-20T08:10:15;6.65;;;2.70;;
38911;SDS011;28444;48.056;14.408;2023-07-20T08:12:41;8.77;;;3.10;;
38911;SDS011;28444;48.056;14.408;2023-07-20T08:15:10;4.78;;;3.30;;
38911;SDS011;28444;48.056;14.408;2023-07-20T08:17:38;7.45;;;2.97;;
38911;SDS011;28444;48.056;14.408;2023-07-20T08:20:05;6.38;;;3.15;;
38911;SDS011;28444;48.056;14.408;2023-07-20T08:22:32;5.95;;;2.55;;
38911;SDS011;28444;48.056;14.408;2023-07-20T08:24:59;7.05;;;2.63;;
38911;SDS011;28444;48.056;14.408;2023-07-20T08:27:26;6.72;;;2.80;;
38911;SDS011;28444;48.056;14.408;2023-07-20T08:29:52;5.40;;;2.97;;
38911;SDS011;28444;48.056;14.408;2023-07-20T08:32:19;5.03;;;2.67;;
38911;SDS011;28444;48.056;14.408;2023-07-20T08:34:46;4.85;;;2.65;;
38911;SDS011;28444;48.056;14.408;2023-07-20T08:37:12;9.57;;;3.30;;
38911;SDS011;28444;48.056;14.408;2023-07-20T08:39:39;6.43;;;3.03;;
38911;SDS011;28444;48.056;14.408;2023-07-20T08:42:06;3.47;;;2.58;;
38911;SDS011;28444;48.056;14.408;2023-07-20T08:44:33;10.13;;;2.70;;
38911;SDS011;28444;48.056;14.408;2023-07-20T08:47:00;5.15;;;3.33;;
38911;SDS011;28444;48.056;14.408;2023-07-20T08:49:31;4.13;;;2.40;;
38911;SDS011;28444;48.056;14.408;2023-07-20T08:51:59;6.72;;;2.75;;
38911;SDS011;28444;48.056;14.408;2023-07-20T08:54:32;5.60;;;2.40;;
38911;SDS011;28444;48.056;14.408;2023-07-20T08:57:01;7.63;;;2.40;;
38911;SDS011;28444;48.056;14.408;2023-07-20T08:59:29;4.43;;;2.40;;
38911;SDS011;28444;48.056;14.408;2023-07-20T09:01:57;8.27;;;2.75;;
38911;SDS011;28444;48.056;14.408;2023-07-20T09:04:25;33.70;;;4.93;;
38911;SDS011;28444;48.056;14.408;2023-07-20T09:06:52;8.52;;;2.95;;
38911;SDS011;28444;48.056;14.408;2023-07-20T09:09:19;10.63;;;2.95;;
38911;SDS011;28444;48.056;14.408;2023-07-20T09:11:48;17.23;;;2.40;;
38911;SDS011;28444;48.056;14.408;2023-07-20T09:14:15;9.90;;;2.05;;
38911;SDS011;28444;48.056;14.408;2023-07-20T09:16:55;4.47;;;2.20;;
38911;SDS011;28444;48.056;14.408;2023-07-20T09:19:22;26.98;;;4.47;;
38911;SDS011;28444;48.056;14.408;2023-07-20T09:21:49;18.23;;;3.10;;
38911;SDS011;28444;48.056;14.408;2023-07-20T09:24:17;15.35;;;2.83;;
38911;SDS011;28444;48.056;14.408;2023-07-20T09:26:45;7.65;;;2.75;;
38911;SDS011;28444;48.056;14.408;2023-07-20T09:29:20;4.25;;;2.20;;
38911;SDS011;28444;48.056;14.408;2023-07-20T09:31:59;6.88;;;3.05;;
38911;SDS011;28444;48.056;14.408;2023-07-20T09:34:28;4.28;;;2.40;;
38911;SDS011;28444;48.056;14.408;2023-07-20T09:37:01;4.15;;;2.30;;
38911;SDS011;28444;48.056;14.408;2023-07-20T09:39:29;4.90;;;2.08;;
38911;SDS011;28444;48.056;14.408;2023-07-20T09:42:00;3.95;;;2.05;;
38911;SDS011;28444;48.056;14.408;2023-07-20T09:44:31;7.00;;;2.80;;
38911;SDS011;28444;48.056;14.408;2023-07-20T09:47:02;4.75;;;2.08;;
38911;SDS011;28444;48.056;14.408;2023-07-20T09:49:30;3.47;;;1.88;;
38911;SDS011;28444;48.056;14.408;2023-07-20T09:52:17;7.05;;;2.20;;
38911;SDS011;28444;48.056;14.408;2023-07-20T09:55:05;10.35;;;2.38;;
38911;SDS011;28444;48.056;14.408;2023-07-20T09:57:33;6.43;;;2.75;;
38911;SDS011;28444;48.056;14.408;2023-07-20T10:00:04;4.28;;;1.75;;
38911;SDS011;28444;48.056;14.408;2023-07-20T10:02:43;8.25;;;2.60;;
38911;SDS011;28444;48.056;14.408;2023-07-20T10:05:12;8.32;;;2.50;;
38911;SDS011;28444;48.056;14.408;2023-07-20T10:07:52;4.57;;;2.33;;
38911;SDS011;28444;48.056;14.408;2023-07-20T10:10:34;2.58;;;1.80;;
38911;SDS011;28444;48.056;14.408;2023-07-20T10:13:02;4.68;;;1.58;;
38911;SDS011;28444;48.056;14.408;2023-07-20T10:15:33;5.63;;;2.05;;
38911;SDS011;28444;48.056;14.408;2023-07-20T10:18:07;3.67;;;2.13;;
38911;SDS011;28444;48.056;14.408;2023-07-20T10:20:39;3.08;;;2.00;;
38911;SDS011;28444;48.056;14.408;2023-07-20T10:23:28;5.07;;;2.15;;
38911;SDS011;28444;48.056;14.408;2023-07-20T10:25:57;5.28;;;2.05;;
38911;SDS011;28444;48.056;14.408;2023-07-20T10:28:26;7.80;;;2.00;;
38911;SDS011;28444;48.056;14.408;2023-07-20T10:30:53;6.72;;;2.22;;
38911;SDS011;28444;48.056;14.408;2023-07-20T10:33:20;4.65;;;2.28;;
38911;SDS011;28444;48.056;14.408;2023-07-20T10:35:52;6.45;;;1.90;;
38911;SDS011;28444;48.056;14.408;2023-07-20T10:38:19;5.10;;;2.20;;
38911;SDS011;28444;48.056;14.408;2023-07-20T10:40:55;3.05;;;2.20;;
38911;SDS011;28444;48.056;14.408;2023-07-20T10:43:22;7.50;;;2.70;;
38911;SDS011;28444;48.056;14.408;2023-07-20T10:45:49;6.95;;;2.50;;
38911;SDS011;28444;48.056;14.408;2023-07-20T10:50:46;3.92;;;2.28;;
38911;SDS011;28444;48.056;14.408;2023-07-20T10:53:42;4.75;;;1.90;;
38911;SDS011;28444;48.056;14.408;2023-07-20T10:56:13;4.93;;;1.77;;
38911;SDS011;28444;48.056;14.408;2023-07-20T10:58:41;5.30;;;2.28;;
38911;SDS011;28444;48.056;14.408;2023-07-20T11:01:08;2.78;;;1.65;;
38911;SDS011;28444;48.056;14.408;2023-07-20T11:03:42;4.13;;;1.95;;
38911;SDS011;28444;48.056;14.408;2023-07-20T11:08:55;2.88;;;2.00;;
38911;SDS011;28444;48.056;14.408;2023-07-20T11:11:34;7.28;;;2.47;;
38911;SDS011;28444;48.056;14.408;2023-07-20T11:14:03;6.43;;;1.98;;
38911;SDS011;28444;48.056;14.408;2023-07-20T11:16:48;5.50;;;1.77;;
38911;SDS011;28444;48.056;14.408;2023-07-20T11:19:17;4.70;;;2.70;;
38911;SDS011;28444;48.056;14.408;2023-07-20T11:21:49;4.03;;;1.70;;
38911;SDS011;28444;48.056;14.408;2023-07-20T11:24:28;5.80;;;2.00;;
38911;SDS011;28444;48.056;14.408;2023-07-20T11:26:55;6.53;;;2.13;;
38911;SDS011;28444;48.056;14.408;2023-07-20T11:29:22;5.90;;;2.20;;
38911;SDS011;28444;48.056;14.408;2023-07-20T11:31:58;2.70;;;1.80;;
38911;SDS011;28444;48.056;14.408;2023-07-20T11:34:25;2.65;;;1.77;;
38911;SDS011;28444;48.056;14.408;2023-07-20T11:36:53;8.27;;;2.00;;
38911;SDS011;28444;48.056;14.408;2023-07-20T11:39:23;3.80;;;1.98;;
38911;SDS011;28444;48.056;14.408;2023-07-20T11:41:55;4.80;;;2.20;;
38911;SDS011;28444;48.056;14.408;2023-07-20T11:44:23;3.03;;;2.08;;
38911;SDS011;28444;48.056;14.408;2023-07-20T11:47:04;6.03;;;2.70;;
38911;SDS011;28444;48.056;14.408;2023-07-20T11:49:37;4.72;;;2.17;;
38911;SDS011;28444;48.056;14.408;2023-07-20T11:52:06;6.78;;;2.10;;
38911;SDS011;28444;48.056;14.408;2023-07-20T11:54:39;4.93;;;2.20;;
38911;SDS011;28444;48.056;14.408;2023-07-20T11:57:17;2.90;;;1.63;;
38911;SDS011;28444;48.056;14.408;2023-07-20T11:59:57;7.68;;;2.40;;
38911;SDS011;28444;48.056;14.408;2023-07-20T12:02:30;4.93;;;2.65;;
38911;SDS011;28444;48.056;14.408;2023-07-20T12:04:57;7.80;;;1.90;;
38911;SDS011;28444;48.056;14.408;2023-07-20T12:07:25;7.82;;;2.55;;
38911;SDS011;28444;48.056;14.408;2023-07-20T12:10:03;4.93;;;1.63;;
38911;SDS011;28444;48.056;14.408;2023-07-20T12:12:34;3.38;;;1.88;;
38911;SDS011;28444;48.056;14.408;2023-07-20T12:15:19;3.80;;;1.73;;
38911;SDS011;28444;48.056;14.408;2023-07-20T12:22:58;4.60;;;1.42;;
38911;SDS011;28444;48.056;14.408;2023-07-20T12:25:45;3.72;;;2.13;;
38911;SDS011;28444;48.056;14.408;2023-07-20T12:28:13;5.35;;;2.20;;
38911;SDS011;28444;48.056;14.408;2023-07-20T12:30:42;4.60;;;1.83;;
38911;SDS011;28444;48.056;14.408;2023-07-20T12:33:10;4.38;;;2.00;;
38911;SDS011;28444;48.056;14.408;2023-07-20T12:35:38;2.42;;;1.60;;
38911;SDS011;28444;48.056;14.408;2023-07-20T12:38:05;8.38;;;1.90;;
38911;SDS011;28444;48.056;14.408;2023-07-20T12:40:34;5.18;;;2.10;;
38911;SDS011;28444;48.056;14.408;2023-07-20T12:43:01;6.97;;;2.65;;
38911;SDS011;28444;48.056;14.408;2023-07-20T12:45:27;3.65;;;1.40;;
38911;SDS011;28444;48.056;14.408;2023-07-20T12:47:54;6.32;;;2.28;;
38911;SDS011;28444;48.056;14.408;2023-07-20T12:50:21;4.03;;;1.38;;
38911;SDS011;28444;48.056;14.408;2023-07-20T12:52:47;2.35;;;1.45;;
38911;SDS011;28444;48.056;14.408;2023-07-20T12:55:14;5.18;;;2.47;;
38911;SDS011;28444;48.056;14.408;2023-07-20T12:57:41;4.25;;;2.00;;
38911;SDS011;28444;48.056;14.408;2023-07-20T13:00:09;2.83;;;1.52;;
38911;SDS011;28444;48.056;14.408;2023-07-20T13:02:37;2.90;;;2.20;;
38911;SDS011;28444;48.056;14.408;2023-07-20T13:05:05;5.05;;;1.70;;
38911;SDS011;28444;48.056;14.408;2023-07-20T13:07:32;4.97;;;2.38;;
38911;SDS011;28444;48.056;14.408;2023-07-20T13:10:06;5.00;;;2.60;;
38911;SDS011;28444;48.056;14.408;2023-07-20T13:12:34;2.95;;;1.77;;
38911;SDS011;28444;48.056;14.408;2023-07-20T13:15:02;4.95;;;2.30;;
38911;SDS011;28444;48.056;14.408;2023-07-20T13:17:32;6.75;;;2.53;;
38911;SDS011;28444;48.056;14.408;2023-07-20T13:20:03;6.30;;;2.08;;
38911;SDS011;28444;48.056;14.408;2023-07-20T13:22:30;7.05;;;2.25;;
38911;SDS011;28444;48.056;14.408;2023-07-20T13:24:57;2.90;;;1.95;;
38911;SDS011;28444;48.056;14.408;2023-07-20T13:27:24;4.03;;;2.22;;
38911;SDS011;28444;48.056;14.408;2023-07-20T13:29:52;5.53;;;2.42;;
38911;SDS011;28444;48.056;14.408;2023-07-20T13:32:19;8.00;;;1.90;;
38911;SDS011;28444;48.056;14.408;2023-07-20T13:34:46;3.88;;;1.75;;
38911;SDS011;28444;48.056;14.408;2023-07-20T13:37:14;4.28;;;1.75;;
38911;SDS011;28444;48.056;14.408;2023-07-20T13:39:42;3.10;;;2.20;;
38911;SDS011;28444;48.056;14.408;2023-07-20T13:42:10;2.22;;;1.92;;
38911;SDS011;28444;48.056;14.408;2023-07-20T13:44:38;4.85;;;2.10;;
38911;SDS011;28444;48.056;14.408;2023-07-20T13:47:05;4.97;;;2.10;;
38911;SDS011;28444;48.056;14.408;2023-07-20T13:49:35;3.28;;;1.98;;
38911;SDS011;28444;48.056;14.408;2023-07-20T13:52:12;4.15;;;2.38;;
38911;SDS011;28444;48.056;14.408;2023-07-20T13:54:41;3.03;;;1.60;;
38911;SDS011;28444;48.056;14.408;2023-07-20T13:57:11;10.02;;;2.30;;
38911;SDS011;28444;48.056;14.408;2023-07-20T13:59:38;9.57;;;2.35;;
38911;SDS011;28444;48.056;14.408;2023-07-20T14:02:06;5.05;;;2.40;;
38911;SDS011;28444;48.056;14.408;2023-07-20T14:04:35;9.27;;;1.83;;
38911;SDS011;28444;48.056;14.408;2023-07-20T14:07:02;4.15;;;2.13;;
38911;SDS011;28444;48.056;14.408;2023-07-20T14:09:29;7.15;;;1.63;;
38911;SDS011;28444;48.056;14.408;2023-07-20T14:11:56;6.72;;;2.50;;
38911;SDS011;28444;48.056;14.408;2023-07-20T14:14:25;8.70;;;2.50;;
38911;SDS011;28444;48.056;14.408;2023-07-20T14:16:52;10.10;;;2.50;;
38911;SDS011;28444;48.056;14.408;2023-07-20T14:19:19;7.10;;;1.92;;
38911;SDS011;28444;48.056;14.408;2023-07-20T14:21:46;1.85;;;1.70;;
38911;SDS011;28444;48.056;14.408;2023-07-20T14:24:12;4.45;;;2.20;;
38911;SDS011;28444;48.056;14.408;2023-07-20T14:26:40;3.17;;;2.00;;
38911;SDS011;28444;48.056;14.408;2023-07-20T14:29:09;4.95;;;2.25;;
38911;SDS011;28444;48.056;14.408;2023-07-20T14:31:36;5.25;;;2.40;;
38911;SDS011;28444;48.056;14.408;2023-07-20T14:34:03;6.47;;;2.08;;
38911;SDS011;28444;48.056;14.408;2023-07-20T14:36:30;3.38;;;1.85;;
38911;SDS011;28444;48.056;14.408;2023-07-20T14:39:00;3.05;;;2.13;;
38911;SDS011;28444;48.056;14.408;2023-07-20T14:41:27;2.30;;;1.65;;
38911;SDS011;28444;48.056;14.408;2023-07-20T14:43:53;4.20;;;2.05;;
38911;SDS011;28444;48.056;14.408;2023-07-20T14:46:20;4.07;;;1.92;;
38911;SDS011;28444;48.056;14.408;2023-07-20T14:48:47;9.45;;;2.55;;
38911;SDS011;28444;48.056;14.408;2023-07-20T14:51:14;4.03;;;2.00;;
38911;SDS011;28444;48.056;14.408;2023-07-20T14:53:40;3.83;;;2.17;;
38911;SDS011;28444;48.056;14.408;2023-07-20T14:56:08;5.07;;;1.98;;
38911;SDS011;28444;48.056;14.408;2023-07-20T14:58:35;7.57;;;2.60;;